X  SluitMETAR luchtvaart weer gegevens      EHAM Amsterdam Schiphol

Temperatuur

17°C Temperatuur

14°C Dauwpunt

83% Vochtigheid



Wind

13 KM/U

 8 MPH

 4 M/S

 7 KTS



250°
West Zuid
West
Huidig weer

Wat bewolking Wat bewolking
Luchtdruk 1003.92 (hPa) - 29.65 (in)
Zicht 6.2 (mi) - 10 (km)
Vliegveld
Vliegveld code EHAM

Locatie Amsterdam Schiphol 80 (km)

Metar:
EHAM 181055Z 25007KT 9999 FEW012 SCT020 BKN030 17/14 Q1004 NOSIG

Tijd: 18-08-2019 12:55